sensor_id;sensor_type;location;lat;lon;timestamp;temperature;humidity
8896;DHT22;4484;48.928;10.066;2023-04-25T00:06:00;5.30;99.90
8896;DHT22;4484;48.928;10.066;2023-04-25T00:08:29;5.40;99.90
8896;DHT22;4484;48.928;10.066;2023-04-25T00:10:57;5.40;99.90
8896;DHT22;4484;48.928;10.066;2023-04-25T00:13:25;5.40;99.90
8896;DHT22;4484;48.928;10.066;2023-04-25T00:15:52;5.50;99.90
8896;DHT22;4484;48.928;10.066;2023-04-25T00:18:23;5.40;99.90
8896;DHT22;4484;48.928;10.066;2023-04-25T00:20:49;5.40;99.90
8896;DHT22;4484;48.928;10.066;2023-04-25T00:23:17;5.40;99.90
8896;DHT22;4484;48.928;10.066;2023-04-25T00:25:48;5.40;99.90
8896;DHT22;4484;48.928;10.066;2023-04-25T00:28:15;5.40;99.90
8896;DHT22;4484;48.928;10.066;2023-04-25T00:30:42;5.30;99.90
8896;DHT22;4484;48.928;10.066;2023-04-25T00:33:09;5.40;99.90
8896;DHT22;4484;48.928;10.066;2023-04-25T00:35:37;5.40;99.90
8896;DHT22;4484;48.928;10.066;2023-04-25T00:38:05;5.40;99.90
8896;DHT22;4484;48.928;10.066;2023-04-25T00:40:31;5.40;99.90
8896;DHT22;4484;48.928;10.066;2023-04-25T00:42:58;5.40;99.90
8896;DHT22;4484;48.928;10.066;2023-04-25T00:45:28;5.40;99.90
8896;DHT22;4484;48.928;10.066;2023-04-25T00:47:56;5.50;99.90
8896;DHT22;4484;48.928;10.066;2023-04-25T00:50:24;5.50;99.90
8896;DHT22;4484;48.928;10.066;2023-04-25T00:52:51;5.60;99.90
8896;DHT22;4484;48.928;10.066;2023-04-25T00:55:18;5.60;99.90
8896;DHT22;4484;48.928;10.066;2023-04-25T00:57:46;5.70;99.90
8896;DHT22;4484;48.928;10.066;2023-04-25T01:00:13;5.70;99.90
8896;DHT22;4484;48.928;10.066;2023-04-25T01:02:43;5.70;99.90
8896;DHT22;4484;48.928;10.066;2023-04-25T01:05:11;5.70;99.90
8896;DHT22;4484;48.928;10.066;2023-04-25T01:07:39;5.70;99.90
8896;DHT22;4484;48.928;10.066;2023-04-25T01:10:06;5.70;99.90
8896;DHT22;4484;48.928;10.066;2023-04-25T01:12:34;5.80;99.90
8896;DHT22;4484;48.928;10.066;2023-04-25T01:15:00;5.80;99.90
8896;DHT22;4484;48.928;10.066;2023-04-25T01:17:28;5.80;99.90
8896;DHT22;4484;48.928;10.066;2023-04-25T01:19:55;5.80;99.90
8896;DHT22;4484;48.928;10.066;2023-04-25T01:22:23;5.70;99.90
8896;DHT22;4484;48.928;10.066;2023-04-25T01:24:50;5.80;99.90
8896;DHT22;4484;48.928;10.066;2023-04-25T01:27:18;5.70;99.90
8896;DHT22;4484;48.928;10.066;2023-04-25T01:29:45;5.70;99.90
8896;DHT22;4484;48.928;10.066;2023-04-25T01:32:13;5.60;99.90
8896;DHT22;4484;48.928;10.066;2023-04-25T01:34:40;5.60;99.90
8896;DHT22;4484;48.928;10.066;2023-04-25T01:37:07;5.50;99.90
8896;DHT22;4484;48.928;10.066;2023-04-25T01:39:34;5.40;99.90
8896;DHT22;4484;48.928;10.066;2023-04-25T01:42:01;5.40;99.90
8896;DHT22;4484;48.928;10.066;2023-04-25T01:44:29;5.30;99.90
8896;DHT22;4484;48.928;10.066;2023-04-25T01:46:56;5.20;99.90
8896;DHT22;4484;48.928;10.066;2023-04-25T01:49:25;5.10;99.90
8896;DHT22;4484;48.928;10.066;2023-04-25T01:51:52;5.10;99.90
8896;DHT22;4484;48.928;10.066;2023-04-25T01:54:19;5.10;99.90
8896;DHT22;4484;48.928;10.066;2023-04-25T01:56:50;5.00;99.90
8896;DHT22;4484;48.928;10.066;2023-04-25T01:59:18;5.00;99.90
8896;DHT22;4484;48.928;10.066;2023-04-25T02:02:05;5.00;99.90
8896;DHT22;4484;48.928;10.066;2023-04-25T02:04:34;5.00;99.90
8896;DHT22;4484;48.928;10.066;2023-04-25T02:07:03;4.90;99.90
8896;DHT22;4484;48.928;10.066;2023-04-25T02:09:44;4.90;99.90
8896;DHT22;4484;48.928;10.066;2023-04-25T02:12:12;4.90;99.90
8896;DHT22;4484;48.928;10.066;2023-04-25T02:14:57;4.90;99.90
8896;DHT22;4484;48.928;10.066;2023-04-25T02:17:40;4.90;99.90
8896;DHT22;4484;48.928;10.066;2023-04-25T02:20:07;4.90;99.90
8896;DHT22;4484;48.928;10.066;2023-04-25T02:22:34;4.90;99.90
8896;DHT22;4484;48.928;10.066;2023-04-25T02:25:04;4.90;99.90
8896;DHT22;4484;48.928;10.066;2023-04-25T02:27:31;4.90;99.90
8896;DHT22;4484;48.928;10.066;2023-04-25T02:29:58;4.90;99.90
8896;DHT22;4484;48.928;10.066;2023-04-25T02:32:25;4.80;99.90
8896;DHT22;4484;48.928;10.066;2023-04-25T02:34:53;4.80;99.90
8896;DHT22;4484;48.928;10.066;2023-04-25T02:37:20;4.90;99.90
8896;DHT22;4484;48.928;10.066;2023-04-25T02:39:47;5.00;99.90
8896;DHT22;4484;48.928;10.066;2023-04-25T02:42:14;5.00;99.90
8896;DHT22;4484;48.928;10.066;2023-04-25T02:44:40;5.00;99.90
8896;DHT22;4484;48.928;10.066;2023-04-25T02:47:07;5.00;99.90
8896;DHT22;4484;48.928;10.066;2023-04-25T02:49:34;5.10;99.90
8896;DHT22;4484;48.928;10.066;2023-04-25T02:52:01;5.10;99.90
8896;DHT22;4484;48.928;10.066;2023-04-25T02:54:28;5.10;99.90
8896;DHT22;4484;48.928;10.066;2023-04-25T02:56:55;5.10;99.90
8896;DHT22;4484;48.928;10.066;2023-04-25T02:59:26;5.20;99.90
8896;DHT22;4484;48.928;10.066;2023-04-25T03:01:53;5.20;99.90
8896;DHT22;4484;48.928;10.066;2023-04-25T03:04:20;5.30;99.90
8896;DHT22;4484;48.928;10.066;2023-04-25T03:06:47;5.30;99.90
8896;DHT22;4484;48.928;10.066;2023-04-25T03:09:14;5.30;99.90
8896;DHT22;4484;48.928;10.066;2023-04-25T03:11:41;5.40;99.90
8896;DHT22;4484;48.928;10.066;2023-04-25T03:14:08;5.40;99.90
8896;DHT22;4484;48.928;10.066;2023-04-25T03:16:35;5.50;99.90
8896;DHT22;4484;48.928;10.066;2023-04-25T03:19:02;5.40;99.90
8896;DHT22;4484;48.928;10.066;2023-04-25T03:21:34;5.50;99.90
8896;DHT22;4484;48.928;10.066;2023-04-25T03:24:02;5.50;99.90
8896;DHT22;4484;48.928;10.066;2023-04-25T03:26:30;5.50;99.90
8896;DHT22;4484;48.928;10.066;2023-04-25T03:28:57;5.50;99.90
8896;DHT22;4484;48.928;10.066;2023-04-25T03:31:23;5.50;99.90
8896;DHT22;4484;48.928;10.066;2023-04-25T03:33:50;5.50;99.90
8896;DHT22;4484;48.928;10.066;2023-04-25T03:36:21;5.40;99.90
8896;DHT22;4484;48.928;10.066;2023-04-25T03:38:47;5.40;99.90
8896;DHT22;4484;48.928;10.066;2023-04-25T03:41:16;5.40;99.90
8896;DHT22;4484;48.928;10.066;2023-04-25T03:43:56;5.30;99.90
8896;DHT22;4484;48.928;10.066;2023-04-25T03:46:23;5.30;99.90
8896;DHT22;4484;48.928;10.066;2023-04-25T03:48:50;5.30;99.90
8896;DHT22;4484;48.928;10.066;2023-04-25T03:51:21;5.20;99.90
8896;DHT22;4484;48.928;10.066;2023-04-25T03:53:48;5.20;99.90
8896;DHT22;4484;48.928;10.066;2023-04-25T03:56:30;5.20;99.90
8896;DHT22;4484;48.928;10.066;2023-04-25T03:59:04;5.30;99.90
8896;DHT22;4484;48.928;10.066;2023-04-25T04:01:31;5.30;99.90
8896;DHT22;4484;48.928;10.066;2023-04-25T04:03:58;5.30;99.90
8896;DHT22;4484;48.928;10.066;2023-04-25T04:06:26;5.30;99.90
8896;DHT22;4484;48.928;10.066;2023-04-25T04:09:01;5.30;99.90
8896;DHT22;4484;48.928;10.066;2023-04-25T04:11:30;5.40;99.90
8896;DHT22;4484;48.928;10.066;2023-04-25T04:13:58;5.30;99.90
8896;DHT22;4484;48.928;10.066;2023-04-25T04:16:26;5.30;99.90
8896;DHT22;4484;48.928;10.066;2023-04-25T04:18:53;5.30;99.90
8896;DHT22;4484;48.928;10.066;2023-04-25T04:21:20;5.30;99.90
8896;DHT22;4484;48.928;10.066;2023-04-25T04:23:47;5.40;99.90
8896;DHT22;4484;48.928;10.066;2023-04-25T04:26:15;5.40;99.90
8896;DHT22;4484;48.928;10.066;2023-04-25T04:28:56;5.40;99.90
8896;DHT22;4484;48.928;10.066;2023-04-25T04:31:49;5.40;99.90
8896;DHT22;4484;48.928;10.066;2023-04-25T04:34:17;5.40;99.90
8896;DHT22;4484;48.928;10.066;2023-04-25T04:36:45;5.40;99.90
8896;DHT22;4484;48.928;10.066;2023-04-25T04:39:13;5.40;99.90
8896;DHT22;4484;48.928;10.066;2023-04-25T04:42:01;5.40;99.90
8896;DHT22;4484;48.928;10.066;2023-04-25T04:44:50;5.40;99.90
8896;DHT22;4484;48.928;10.066;2023-04-25T04:47:35;5.40;99.90
8896;DHT22;4484;48.928;10.066;2023-04-25T04:50:26;5.40;99.90
8896;DHT22;4484;48.928;10.066;2023-04-25T04:53:23;5.50;99.90
8896;DHT22;4484;48.928;10.066;2023-04-25T04:56:01;5.50;99.90
8896;DHT22;4484;48.928;10.066;2023-04-25T04:58:48;5.50;99.90
8896;DHT22;4484;48.928;10.066;2023-04-25T05:01:41;5.50;99.90
8896;DHT22;4484;48.928;10.066;2023-04-25T05:04:08;5.50;99.90
8896;DHT22;4484;48.928;10.066;2023-04-25T05:06:55;5.60;99.90
8896;DHT22;4484;48.928;10.066;2023-04-25T05:09:26;5.70;99.90
8896;DHT22;4484;48.928;10.066;2023-04-25T05:12:05;5.70;99.90
8896;DHT22;4484;48.928;10.066;2023-04-25T05:14:50;5.60;99.90
8896;DHT22;4484;48.928;10.066;2023-04-25T05:17:35;5.70;99.90
8896;DHT22;4484;48.928;10.066;2023-04-25T05:20:21;5.70;99.90
8896;DHT22;4484;48.928;10.066;2023-04-25T05:22:53;5.80;99.90
8896;DHT22;4484;48.928;10.066;2023-04-25T05:25:43;5.70;99.90
8896;DHT22;4484;48.928;10.066;2023-04-25T05:28:33;5.80;99.90
8896;DHT22;4484;48.928;10.066;2023-04-25T05:31:14;5.80;99.90
8896;DHT22;4484;48.928;10.066;2023-04-25T05:33:48;5.80;99.90
8896;DHT22;4484;48.928;10.066;2023-04-25T05:36:16;5.80;99.90
8896;DHT22;4484;48.928;10.066;2023-04-25T05:38:43;5.80;99.90
8896;DHT22;4484;48.928;10.066;2023-04-25T05:41:30;5.80;99.90
8896;DHT22;4484;48.928;10.066;2023-04-25T05:44:01;5.90;99.90
8896;DHT22;4484;48.928;10.066;2023-04-25T05:46:33;5.90;99.90
8896;DHT22;4484;48.928;10.066;2023-04-25T05:49:24;6.00;99.90
8896;DHT22;4484;48.928;10.066;2023-04-25T05:52:01;6.10;99.90
8896;DHT22;4484;48.928;10.066;2023-04-25T05:54:57;6.10;99.90
8896;DHT22;4484;48.928;10.066;2023-04-25T05:57:25;6.10;99.90
8896;DHT22;4484;48.928;10.066;2023-04-25T05:59:54;6.20;99.90
8896;DHT22;4484;48.928;10.066;2023-04-25T06:02:24;6.20;99.90
8896;DHT22;4484;48.928;10.066;2023-04-25T06:04:52;6.30;99.90
8896;DHT22;4484;48.928;10.066;2023-04-25T06:07:21;6.30;99.90
8896;DHT22;4484;48.928;10.066;2023-04-25T06:09:48;6.30;99.90
8896;DHT22;4484;48.928;10.066;2023-04-25T06:12:15;6.40;99.90
8896;DHT22;4484;48.928;10.066;2023-04-25T06:14:42;6.50;99.90
8896;DHT22;4484;48.928;10.066;2023-04-25T06:17:09;6.50;99.90
8896;DHT22;4484;48.928;10.066;2023-04-25T06:19:36;6.60;99.90
8896;DHT22;4484;48.928;10.066;2023-04-25T06:22:03;6.70;99.90
8896;DHT22;4484;48.928;10.066;2023-04-25T06:24:31;6.80;99.90
8896;DHT22;4484;48.928;10.066;2023-04-25T06:26:58;6.90;99.90
8896;DHT22;4484;48.928;10.066;2023-04-25T06:29:25;6.90;99.90
8896;DHT22;4484;48.928;10.066;2023-04-25T06:31:52;6.90;99.90
8896;DHT22;4484;48.928;10.066;2023-04-25T06:34:20;6.90;99.90
8896;DHT22;4484;48.928;10.066;2023-04-25T06:36:47;6.90;99.90
8896;DHT22;4484;48.928;10.066;2023-04-25T06:39:15;6.90;99.90
8896;DHT22;4484;48.928;10.066;2023-04-25T06:41:42;6.80;99.90
8896;DHT22;4484;48.928;10.066;2023-04-25T06:44:29;6.80;99.90
8896;DHT22;4484;48.928;10.066;2023-04-25T06:46:57;6.80;99.90
8896;DHT22;4484;48.928;10.066;2023-04-25T06:49:23;6.80;99.90
8896;DHT22;4484;48.928;10.066;2023-04-25T06:51:51;6.70;99.90
8896;DHT22;4484;48.928;10.066;2023-04-25T06:54:18;6.70;99.90
8896;DHT22;4484;48.928;10.066;2023-04-25T06:56:55;6.70;99.90
8896;DHT22;4484;48.928;10.066;2023-04-25T06:59:22;6.80;99.90
8896;DHT22;4484;48.928;10.066;2023-04-25T07:01:50;6.80;99.90
8896;DHT22;4484;48.928;10.066;2023-04-25T07:04:20;6.80;99.90
8896;DHT22;4484;48.928;10.066;2023-04-25T07:06:50;6.70;99.90
8896;DHT22;4484;48.928;10.066;2023-04-25T07:09:22;6.70;99.90
8896;DHT22;4484;48.928;10.066;2023-04-25T07:11:50;6.70;99.90
8896;DHT22;4484;48.928;10.066;2023-04-25T07:14:17;6.70;99.90
8896;DHT22;4484;48.928;10.066;2023-04-25T07:16:44;6.80;99.90
8896;DHT22;4484;48.928;10.066;2023-04-25T07:19:12;6.80;99.90
8896;DHT22;4484;48.928;10.066;2023-04-25T07:21:39;6.80;99.90
8896;DHT22;4484;48.928;10.066;2023-04-25T07:24:06;6.90;99.90
8896;DHT22;4484;48.928;10.066;2023-04-25T07:26:37;6.90;99.90
8896;DHT22;4484;48.928;10.066;2023-04-25T07:29:36;6.90;99.90
8896;DHT22;4484;48.928;10.066;2023-04-25T07:32:04;6.90;99.90
8896;DHT22;4484;48.928;10.066;2023-04-25T07:34:31;7.00;99.90
8896;DHT22;4484;48.928;10.066;2023-04-25T07:36:59;7.00;99.90
8896;DHT22;4484;48.928;10.066;2023-04-25T07:39:31;7.10;99.90
8896;DHT22;4484;48.928;10.066;2023-04-25T07:41:59;7.10;99.90
8896;DHT22;4484;48.928;10.066;2023-04-25T07:44:28;7.20;99.90
8896;DHT22;4484;48.928;10.066;2023-04-25T07:46:57;7.30;99.90
8896;DHT22;4484;48.928;10.066;2023-04-25T07:49:24;7.30;99.90
8896;DHT22;4484;48.928;10.066;2023-04-25T07:51:51;7.40;99.90
8896;DHT22;4484;48.928;10.066;2023-04-25T07:54:19;7.40;99.90
8896;DHT22;4484;48.928;10.066;2023-04-25T07:56:52;7.40;99.90
8896;DHT22;4484;48.928;10.066;2023-04-25T07:59:24;7.40;99.90
8896;DHT22;4484;48.928;10.066;2023-04-25T08:01:53;7.40;99.90
8896;DHT22;4484;48.928;10.066;2023-04-25T08:04:21;7.40;99.90
8896;DHT22;4484;48.928;10.066;2023-04-25T08:06:54;7.40;99.90
8896;DHT22;4484;48.928;10.066;2023-04-25T08:09:24;7.40;99.90
8896;DHT22;4484;48.928;10.066;2023-04-25T08:11:52;7.50;99.90
8896;DHT22;4484;48.928;10.066;2023-04-25T08:14:25;7.50;99.90
8896;DHT22;4484;48.928;10.066;2023-04-25T08:16:52;7.60;99.90
8896;DHT22;4484;48.928;10.066;2023-04-25T08:19:19;7.60;99.90
8896;DHT22;4484;48.928;10.066;2023-04-25T08:21:47;7.60;99.90
8896;DHT22;4484;48.928;10.066;2023-04-25T08:24:18;7.50;99.90
8896;DHT22;4484;48.928;10.066;2023-04-25T08:26:45;7.40;99.90
8896;DHT22;4484;48.928;10.066;2023-04-25T08:29:15;7.30;99.90
8896;DHT22;4484;48.928;10.066;2023-04-25T08:31:42;7.10;99.90
8896;DHT22;4484;48.928;10.066;2023-04-25T08:34:09;7.10;99.90
8896;DHT22;4484;48.928;10.066;2023-04-25T08:36:47;7.10;99.90
8896;DHT22;4484;48.928;10.066;2023-04-25T08:39:30;7.20;99.90
8896;DHT22;4484;48.928;10.066;2023-04-25T08:42:17;7.40;99.90
8896;DHT22;4484;48.928;10.066;2023-04-25T08:44:45;7.50;99.90
8896;DHT22;4484;48.928;10.066;2023-04-25T08:47:14;7.60;99.90
8896;DHT22;4484;48.928;10.066;2023-04-25T08:49:46;7.70;99.90
8896;DHT22;4484;48.928;10.066;2023-04-25T08:52:14;7.80;99.90
8896;DHT22;4484;48.928;10.066;2023-04-25T08:54:48;7.90;99.90
8896;DHT22;4484;48.928;10.066;2023-04-25T08:57:17;8.10;99.90
8896;DHT22;4484;48.928;10.066;2023-04-25T08:59:46;8.30;99.90
8896;DHT22;4484;48.928;10.066;2023-04-25T09:02:14;8.50;99.90
8896;DHT22;4484;48.928;10.066;2023-04-25T09:04:46;8.70;99.90
8896;DHT22;4484;48.928;10.066;2023-04-25T09:07:13;8.90;99.90
8896;DHT22;4484;48.928;10.066;2023-04-25T09:09:45;9.10;99.90
8896;DHT22;4484;48.928;10.066;2023-04-25T09:12:14;9.20;99.90
8896;DHT22;4484;48.928;10.066;2023-04-25T09:14:41;9.40;99.90
8896;DHT22;4484;48.928;10.066;2023-04-25T09:17:25;9.50;99.90
8896;DHT22;4484;48.928;10.066;2023-04-25T09:19:54;9.60;99.90
8896;DHT22;4484;48.928;10.066;2023-04-25T09:22:25;9.80;99.90
8896;DHT22;4484;48.928;10.066;2023-04-25T09:24:52;9.90;99.90
8896;DHT22;4484;48.928;10.066;2023-04-25T09:27:22;9.90;99.90
8896;DHT22;4484;48.928;10.066;2023-04-25T09:29:59;9.90;99.90
8896;DHT22;4484;48.928;10.066;2023-04-25T09:32:45;9.90;99.90
8896;DHT22;4484;48.928;10.066;2023-04-25T09:35:23;9.80;99.90
8896;DHT22;4484;48.928;10.066;2023-04-25T09:37:52;9.90;99.90
8896;DHT22;4484;48.928;10.066;2023-04-25T09:40:51;10.00;99.90
8896;DHT22;4484;48.928;10.066;2023-04-25T09:43:27;10.10;99.90
8896;DHT22;4484;48.928;10.066;2023-04-25T09:45:55;10.10;99.90
8896;DHT22;4484;48.928;10.066;2023-04-25T09:48:27;10.20;99.90
8896;DHT22;4484;48.928;10.066;2023-04-25T09:51:06;10.10;99.90
8896;DHT22;4484;48.928;10.066;2023-04-25T09:53:36;10.10;99.90
8896;DHT22;4484;48.928;10.066;2023-04-25T09:56:23;10.20;99.90
8896;DHT22;4484;48.928;10.066;2023-04-25T09:58:53;10.20;99.90
8896;DHT22;4484;48.928;10.066;2023-04-25T10:01:21;10.00;99.90
8896;DHT22;4484;48.928;10.066;2023-04-25T10:04:03;10.00;99.90
8896;DHT22;4484;48.928;10.066;2023-04-25T10:06:42;10.00;99.90
8896;DHT22;4484;48.928;10.066;2023-04-25T10:09:11;10.30;99.90
8896;DHT22;4484;48.928;10.066;2023-04-25T10:11:39;10.60;99.90
8896;DHT22;4484;48.928;10.066;2023-04-25T10:14:06;10.90;99.90
8896;DHT22;4484;48.928;10.066;2023-04-25T10:16:33;11.30;99.90
8896;DHT22;4484;48.928;10.066;2023-04-25T10:19:01;11.60;99.90
8896;DHT22;4484;48.928;10.066;2023-04-25T10:21:31;11.90;99.90
8896;DHT22;4484;48.928;10.066;2023-04-25T10:23:59;12.20;99.90
8896;DHT22;4484;48.928;10.066;2023-04-25T10:26:27;12.40;99.90
8896;DHT22;4484;48.928;10.066;2023-04-25T10:28:58;12.50;99.90
8896;DHT22;4484;48.928;10.066;2023-04-25T10:31:26;12.50;99.90
8896;DHT22;4484;48.928;10.066;2023-04-25T10:33:53;12.60;99.90
8896;DHT22;4484;48.928;10.066;2023-04-25T10:36:24;12.70;99.90
8896;DHT22;4484;48.928;10.066;2023-04-25T10:38:53;12.70;99.90
8896;DHT22;4484;48.928;10.066;2023-04-25T10:41:21;12.80;99.90
8896;DHT22;4484;48.928;10.066;2023-04-25T10:43:50;12.80;99.90
8896;DHT22;4484;48.928;10.066;2023-04-25T10:46:27;13.10;99.90
8896;DHT22;4484;48.928;10.066;2023-04-25T10:48:55;13.60;99.90
8896;DHT22;4484;48.928;10.066;2023-04-25T10:51:28;14.00;99.90
8896;DHT22;4484;48.928;10.066;2023-04-25T10:54:04;14.50;99.90
8896;DHT22;4484;48.928;10.066;2023-04-25T10:59:14;14.80;99.90
8896;DHT22;4484;48.928;10.066;2023-04-25T11:01:46;15.10;99.90
8896;DHT22;4484;48.928;10.066;2023-04-25T11:09:39;15.50;99.90
8896;DHT22;4484;48.928;10.066;2023-04-25T11:12:09;15.40;99.90
8896;DHT22;4484;48.928;10.066;2023-04-25T11:15:02;15.40;99.90
8896;DHT22;4484;48.928;10.066;2023-04-25T11:17:29;15.20;99.90
8896;DHT22;4484;48.928;10.066;2023-04-25T11:19:57;15.20;99.90
8896;DHT22;4484;48.928;10.066;2023-04-25T11:22:23;15.30;99.90
8896;DHT22;4484;48.928;10.066;2023-04-25T11:24:50;15.40;99.90
8896;DHT22;4484;48.928;10.066;2023-04-25T11:27:17;15.60;99.90
8896;DHT22;4484;48.928;10.066;2023-04-25T11:29:44;15.90;99.90
8896;DHT22;4484;48.928;10.066;2023-04-25T11:32:15;16.20;99.90
8896;DHT22;4484;48.928;10.066;2023-04-25T11:34:44;16.60;99.90
8896;DHT22;4484;48.928;10.066;2023-04-25T11:37:14;17.00;99.90
8896;DHT22;4484;48.928;10.066;2023-04-25T11:39:45;17.10;99.90
8896;DHT22;4484;48.928;10.066;2023-04-25T11:42:15;17.30;99.90
8896;DHT22;4484;48.928;10.066;2023-04-25T11:44:41;17.30;99.90
8896;DHT22;4484;48.928;10.066;2023-04-25T11:47:08;17.40;99.90
8896;DHT22;4484;48.928;10.066;2023-04-25T11:49:35;17.40;99.90
8896;DHT22;4484;48.928;10.066;2023-04-25T11:52:02;17.20;99.90
8896;DHT22;4484;48.928;10.066;2023-04-25T11:54:29;16.80;99.90
8896;DHT22;4484;48.928;10.066;2023-04-25T11:56:56;16.40;99.90
8896;DHT22;4484;48.928;10.066;2023-04-25T11:59:24;16.00;99.50
8896;DHT22;4484;48.928;10.066;2023-04-25T12:01:52;15.50;99.90
8896;DHT22;4484;48.928;10.066;2023-04-25T12:04:22;15.10;99.90
8896;DHT22;4484;48.928;10.066;2023-04-25T12:06:54;14.60;99.90
8896;DHT22;4484;48.928;10.066;2023-04-25T12:09:33;14.20;99.90
8896;DHT22;4484;48.928;10.066;2023-04-25T12:12:00;13.80;99.90
8896;DHT22;4484;48.928;10.066;2023-04-25T12:14:32;13.40;99.90
8896;DHT22;4484;48.928;10.066;2023-04-25T12:17:00;13.30;99.90
8896;DHT22;4484;48.928;10.066;2023-04-25T12:19:35;13.20;99.90
8896;DHT22;4484;48.928;10.066;2023-04-25T12:22:03;13.30;99.90
8896;DHT22;4484;48.928;10.066;2023-04-25T12:24:44;13.30;99.90
8896;DHT22;4484;48.928;10.066;2023-04-25T12:27:14;13.20;99.90
8896;DHT22;4484;48.928;10.066;2023-04-25T12:29:53;13.10;99.90
8896;DHT22;4484;48.928;10.066;2023-04-25T12:32:21;12.90;99.90
8896;DHT22;4484;48.928;10.066;2023-04-25T12:34:48;12.70;99.90
8896;DHT22;4484;48.928;10.066;2023-04-25T12:37:14;12.60;99.90
8896;DHT22;4484;48.928;10.066;2023-04-25T12:39:42;12.20;99.90
8896;DHT22;4484;48.928;10.066;2023-04-25T12:42:09;11.90;99.90
8896;DHT22;4484;48.928;10.066;2023-04-25T12:44:38;11.70;99.90
8896;DHT22;4484;48.928;10.066;2023-04-25T12:47:05;11.60;99.90
8896;DHT22;4484;48.928;10.066;2023-04-25T12:49:32;11.50;99.90
8896;DHT22;4484;48.928;10.066;2023-04-25T12:51:59;11.50;99.90
8896;DHT22;4484;48.928;10.066;2023-04-25T12:54:26;11.40;99.90
8896;DHT22;4484;48.928;10.066;2023-04-25T12:56:53;11.30;99.90
8896;DHT22;4484;48.928;10.066;2023-04-25T12:59:20;11.30;99.90
8896;DHT22;4484;48.928;10.066;2023-04-25T13:01:47;11.40;99.90
8896;DHT22;4484;48.928;10.066;2023-04-25T13:04:14;11.40;99.90
8896;DHT22;4484;48.928;10.066;2023-04-25T13:06:42;11.80;99.90
8896;DHT22;4484;48.928;10.066;2023-04-25T13:09:09;12.40;99.90
8896;DHT22;4484;48.928;10.066;2023-04-25T13:11:39;12.60;99.90
8896;DHT22;4484;48.928;10.066;2023-04-25T13:14:07;12.60;99.90
8896;DHT22;4484;48.928;10.066;2023-04-25T13:16:34;12.20;99.90
8896;DHT22;4484;48.928;10.066;2023-04-25T13:19:01;11.90;99.90
8896;DHT22;4484;48.928;10.066;2023-04-25T13:21:30;11.60;99.90
8896;DHT22;4484;48.928;10.066;2023-04-25T13:23:58;11.20;99.90
8896;DHT22;4484;48.928;10.066;2023-04-25T13:26:25;10.60;99.90
8896;DHT22;4484;48.928;10.066;2023-04-25T13:28:52;10.30;99.90
8896;DHT22;4484;48.928;10.066;2023-04-25T13:31:19;10.10;99.90
8896;DHT22;4484;48.928;10.066;2023-04-25T13:33:46;10.00;99.90
8896;DHT22;4484;48.928;10.066;2023-04-25T13:36:13;10.00;99.90
8896;DHT22;4484;48.928;10.066;2023-04-25T13:38:40;9.90;99.90
8896;DHT22;4484;48.928;10.066;2023-04-25T13:41:10;9.90;99.90
8896;DHT22;4484;48.928;10.066;2023-04-25T13:43:40;10.00;99.90
8896;DHT22;4484;48.928;10.066;2023-04-25T13:46:07;10.10;99.90
8896;DHT22;4484;48.928;10.066;2023-04-25T13:48:38;10.10;99.90
8896;DHT22;4484;48.928;10.066;2023-04-25T13:51:05;10.10;99.90
8896;DHT22;4484;48.928;10.066;2023-04-25T13:53:31;10.00;99.90
8896;DHT22;4484;48.928;10.066;2023-04-25T13:55:58;9.90;99.90
8896;DHT22;4484;48.928;10.066;2023-04-25T13:58:25;9.60;99.90
8896;DHT22;4484;48.928;10.066;2023-04-25T14:00:52;9.30;99.90
8896;DHT22;4484;48.928;10.066;2023-04-25T14:03:20;8.90;99.90
8896;DHT22;4484;48.928;10.066;2023-04-25T14:05:47;8.70;99.90
8896;DHT22;4484;48.928;10.066;2023-04-25T14:08:13;8.60;99.90
8896;DHT22;4484;48.928;10.066;2023-04-25T14:10:40;8.50;99.90
8896;DHT22;4484;48.928;10.066;2023-04-25T14:13:07;8.60;99.90
8896;DHT22;4484;48.928;10.066;2023-04-25T14:15:37;8.60;99.90
8896;DHT22;4484;48.928;10.066;2023-04-25T14:18:04;8.60;99.90
8896;DHT22;4484;48.928;10.066;2023-04-25T14:20:31;8.70;99.90
8896;DHT22;4484;48.928;10.066;2023-04-25T14:22:58;8.70;99.90
8896;DHT22;4484;48.928;10.066;2023-04-25T14:25:25;8.90;99.90
8896;DHT22;4484;48.928;10.066;2023-04-25T14:27:52;9.20;99.90
8896;DHT22;4484;48.928;10.066;2023-04-25T14:30:20;9.50;99.90
8896;DHT22;4484;48.928;10.066;2023-04-25T14:32:50;9.80;99.90
8896;DHT22;4484;48.928;10.066;2023-04-25T14:35:18;10.10;99.90
8896;DHT22;4484;48.928;10.066;2023-04-25T14:37:44;10.50;99.90
8896;DHT22;4484;48.928;10.066;2023-04-25T14:40:12;10.80;99.90
8896;DHT22;4484;48.928;10.066;2023-04-25T14:42:41;10.90;99.90
8896;DHT22;4484;48.928;10.066;2023-04-25T14:45:09;10.80;99.90
8896;DHT22;4484;48.928;10.066;2023-04-25T14:47:39;10.70;99.90
8896;DHT22;4484;48.928;10.066;2023-04-25T14:50:07;10.50;99.90
8896;DHT22;4484;48.928;10.066;2023-04-25T14:52:35;10.20;99.90
8896;DHT22;4484;48.928;10.066;2023-04-25T14:55:02;9.90;99.90
8896;DHT22;4484;48.928;10.066;2023-04-25T14:57:33;9.70;99.90
8896;DHT22;4484;48.928;10.066;2023-04-25T15:00:00;9.60;99.90
8896;DHT22;4484;48.928;10.066;2023-04-25T15:02:27;9.20;99.90
8896;DHT22;4484;48.928;10.066;2023-04-25T15:04:54;9.00;99.90
8896;DHT22;4484;48.928;10.066;2023-04-25T15:07:22;8.80;99.90
8896;DHT22;4484;48.928;10.066;2023-04-25T15:09:49;8.60;99.90
8896;DHT22;4484;48.928;10.066;2023-04-25T15:12:16;8.50;99.90
8896;DHT22;4484;48.928;10.066;2023-04-25T15:14:43;8.50;99.90
8896;DHT22;4484;48.928;10.066;2023-04-25T15:17:10;8.60;99.90
8896;DHT22;4484;48.928;10.066;2023-04-25T15:19:39;8.70;99.90
8896;DHT22;4484;48.928;10.066;2023-04-25T15:22:06;8.90;99.90
8896;DHT22;4484;48.928;10.066;2023-04-25T15:24:33;9.10;99.90
8896;DHT22;4484;48.928;10.066;2023-04-25T15:27:00;9.20;99.90
8896;DHT22;4484;48.928;10.066;2023-04-25T15:29:27;9.20;99.90
8896;DHT22;4484;48.928;10.066;2023-04-25T15:31:55;9.10;99.90
8896;DHT22;4484;48.928;10.066;2023-04-25T15:34:22;9.10;99.90
8896;DHT22;4484;48.928;10.066;2023-04-25T15:36:49;8.90;99.90
8896;DHT22;4484;48.928;10.066;2023-04-25T15:39:15;8.70;99.90
8896;DHT22;4484;48.928;10.066;2023-04-25T15:41:43;8.50;99.90
8896;DHT22;4484;48.928;10.066;2023-04-25T15:44:10;8.40;99.90
8896;DHT22;4484;48.928;10.066;2023-04-25T15:46:37;8.30;99.90
8896;DHT22;4484;48.928;10.066;2023-04-25T15:49:04;8.20;99.90
8896;DHT22;4484;48.928;10.066;2023-04-25T15:51:31;8.10;99.90
8896;DHT22;4484;48.928;10.066;2023-04-25T15:53:59;7.90;99.90
8896;DHT22;4484;48.928;10.066;2023-04-25T15:56:28;7.80;99.90
8896;DHT22;4484;48.928;10.066;2023-04-25T15:58:55;7.80;99.90
8896;DHT22;4484;48.928;10.066;2023-04-25T16:01:22;7.80;99.90
8896;DHT22;4484;48.928;10.066;2023-04-25T16:03:50;7.90;99.90
8896;DHT22;4484;48.928;10.066;2023-04-25T16:06:19;7.80;99.90
8896;DHT22;4484;48.928;10.066;2023-04-25T16:08:46;7.90;99.90
8896;DHT22;4484;48.928;10.066;2023-04-25T16:11:12;7.90;99.90
8896;DHT22;4484;48.928;10.066;2023-04-25T16:13:40;7.90;99.90
8896;DHT22;4484;48.928;10.066;2023-04-25T16:16:07;7.80;99.90
8896;DHT22;4484;48.928;10.066;2023-04-25T16:18:34;7.70;99.90
8896;DHT22;4484;48.928;10.066;2023-04-25T16:21:01;7.70;99.90
8896;DHT22;4484;48.928;10.066;2023-04-25T16:23:28;7.70;99.90
8896;DHT22;4484;48.928;10.066;2023-04-25T16:25:55;7.70;99.90
8896;DHT22;4484;48.928;10.066;2023-04-25T16:28:22;7.70;99.90